メインページ
METAR-TAF:

METAR-TAF

空港 :

カルガリー国際空港

カルガリー, アルバータ州, カナダ

緯度: 51-07N, 経度: 114-01W, 海抜: 1077m

現時点の気象観測

当レポートは35分前の06:00(UTC)に作成
北/北東の風 11kt
気温 -10°C
湿度 85%
気圧 1011 hPa
視程: 8.0km
高度600ftの雲はほとんどない
高度2800ftの曇り
小雪

METAR: CYYC 040600Z 02011KT 5SM -SN FEW006 OVC028 M10/M12 A2985 RMK SF2SC6 /S01/ SLP183

時間: 00:35 (06:35 UTC)

予報

当レポートは57分前の05:38(UTC)に作成
予報は04日の 06時(UTC)から 05日の 06時(UTC)まで有効
北/北東の風 8kt
視程: 10km
高度1200ftの雲は散在している
高度3000ftの曇り
小雪
04日の 06時(UTC)から 04日の 10時(UTC)まで一時的に
視程: 1.6km
高度800ftの
小雪
04日の 1000時(UTC)から
の風 10kt
視程: 10km
高度2500ftの千切れ雲あり
小雪
04日の 10時(UTC)から 04日の 18時(UTC)まで一時的に
視程: 4.8km
高度2000ftの
小雪
04日の 1800時(UTC)から
北東の風 6kt
視程: 10km
高度2000ftの雲は散在している
04日の 18時(UTC)から 05日の 06時(UTC)まで一時的に
高度2000ftの千切れ雲あり
04日の 20時(UTC)から 04日の 22時(UTC)まで徐々に
東/南東の風 10kt

TAF: CYYC 040538Z 0406/0506 02008KT P6SM -SN SCT012 OVC030 TEMPO 0406/0410 1SM -SN VV008 FM041000 35010KT P6SM -SN BKN025 TEMPO 0410/0418 3SM -SN VV020 FM041800 04006KT P6SM SCT020 TEMPO 0418/0506 BKN020 BECMG 0420/0422 11010KT RMK NXT FCST BY 040900Z

4,000以上の空港の気象観測と天気予報(METAR報とTAF報)

利用可能な観測所は地図上に黄色い丸と赤い丸で示す。

丸の上にカーソルを重ねると観測所名を参照できる。

次にクリックすると気象観測と天気予報を参照できる。

マップの切り替え:黒色「×」印の緑ボタンをクリックして拡大、「-」印の緑ボタンをクリックして縮小、緑色の三角印をクリックして隣りの地図に切り替え


METAR-TAF: